Time;durP1;ratioP1;P1;durP2;ratioP2;P2;SDS_P1;SDS_P2;PMS_P1;PMS_P2;Temp;Humidity;BMP_temperature;BMP_pressure;BME280_temperature;BME280_humidity;BME280_pressure;Samples;Min_cycle;Max_cycle;Signal;HPM_P1;HPM_P2
2021/04/05 00:02:51;;;;;;;9.18;3.20;;;6.30;99.90;;;;;;10521284;28;20070;-46
2021/04/05 00:08:12;;;;;;;10.93;2.72;;;6.20;99.90;;;;;;10524036;28;20547;-46
2021/04/05 00:13:37;;;;;;;12.18;3.95;;;6.20;99.90;;;;;;10510140;28;20373;-46
2021/04/05 00:18:57;;;;;;;11.65;4.15;;;6.20;99.90;;;;;;10520556;28;20032;-46
2021/04/05 00:24:18;;;;;;;9.10;3.53;;;6.20;99.90;;;;;;10516809;28;20051;-46
2021/04/05 00:29:39;;;;;;;11.20;4.57;;;6.30;99.90;;;;;;10521022;28;20119;-46
2021/04/05 00:35:00;;;;;;;11.25;5.30;;;6.40;99.90;;;;;;10508717;28;20131;-46
2021/04/05 00:40:35;;;;;;;17.77;2.95;;;6.40;99.90;;;;;;10475076;28;20404;-46
2021/04/05 00:45:56;;;;;;;10.40;3.90;;;6.60;99.90;;;;;;10483913;28;20024;-46
2021/04/05 00:51:23;;;;;;;6.07;2.45;;;6.70;99.90;;;;;;10490013;28;20495;-46
2021/04/05 00:56:45;;;;;;;9.57;2.47;;;6.70;99.90;;;;;;10489219;28;20471;-46
2021/04/05 01:02:08;;;;;;;5.57;2.25;;;6.90;99.90;;;;;;10473626;28;20041;-46
2021/04/05 01:07:29;;;;;;;8.23;2.70;;;7.10;99.90;;;;;;10465938;28;20036;-46
2021/04/05 01:12:51;;;;;;;10.40;2.60;;;7.00;99.90;;;;;;10482234;28;20043;-46
2021/04/05 01:18:16;;;;;;;11.35;2.55;;;7.10;99.90;;;;;;10479655;28;20036;-46
2021/04/05 01:23:38;;;;;;;13.38;2.63;;;7.30;99.90;;;;;;10479022;28;20040;-46
2021/04/05 01:28:59;;;;;;;8.27;1.95;;;7.30;99.90;;;;;;10474576;28;20059;-46
2021/04/05 01:34:20;;;;;;;20.40;3.22;;;7.30;99.90;;;;;;10474386;28;20095;-46
2021/04/05 01:39:41;;;;;;;8.88;2.47;;;7.40;99.90;;;;;;10480951;28;20048;-46
2021/04/05 01:45:02;;;;;;;10.77;3.60;;;7.30;99.90;;;;;;10481495;28;20336;-47
2021/04/05 01:50:23;;;;;;;9.57;2.83;;;7.40;99.90;;;;;;10479117;28;20809;-46
2021/04/05 01:55:46;;;;;;;10.23;1.83;;;7.70;99.90;;;;;;10480249;28;20549;-46
2021/04/05 02:01:09;;;;;;;6.97;1.73;;;7.90;99.90;;;;;;10484035;28;20058;-46
2021/04/05 02:06:33;;;;;;;5.40;2.03;;;8.10;99.90;;;;;;10475616;28;20040;-46
2021/04/05 02:11:54;;;;;;;9.07;1.73;;;8.10;99.90;;;;;;10485339;28;20167;-46
2021/04/05 02:17:15;;;;;;;9.35;3.03;;;8.10;99.90;;;;;;10479981;28;20098;-46
2021/04/05 02:22:41;;;;;;;6.18;1.80;;;8.20;99.90;;;;;;10486095;28;20516;-46
2021/04/05 02:28:04;;;;;;;4.30;1.85;;;8.30;99.90;;;;;;10485565;28;20050;-46
2021/04/05 02:33:25;;;;;;;6.40;1.95;;;8.40;99.90;;;;;;10484904;28;20384;-46
2021/04/05 02:38:49;;;;;;;5.65;1.85;;;8.30;99.90;;;;;;10485477;28;20495;-46
2021/04/05 02:44:11;;;;;;;6.38;1.90;;;8.20;99.90;;;;;;10484670;28;20070;-46
2021/04/05 02:49:32;;;;;;;3.63;0.93;;;8.30;99.90;;;;;;10483176;28;20098;-46
2021/04/05 02:54:54;;;;;;;10.23;2.08;;;8.40;99.90;;;;;;10492578;28;20142;-46
2021/04/05 03:00:18;;;;;;;3.42;1.20;;;8.40;99.90;;;;;;10528620;28;20112;-46
2021/04/05 03:05:40;;;;;;;4.00;1.65;;;8.50;99.90;;;;;;10527563;28;20488;-46
2021/04/05 03:11:04;;;;;;;4.25;1.50;;;8.60;99.90;;;;;;10522245;28;20043;-46
2021/04/05 03:16:26;;;;;;;6.07;2.03;;;8.60;99.90;;;;;;10530202;28;20102;-46
2021/04/05 03:21:48;;;;;;;10.70;1.77;;;8.60;99.90;;;;;;10521879;28;20097;-46
2021/04/05 03:27:10;;;;;;;5.35;1.75;;;8.50;99.90;;;;;;10532228;28;20032;-46
2021/04/05 03:32:33;;;;;;;8.10;1.58;;;8.50;99.90;;;;;;10525277;28;20044;-46
2021/04/05 03:37:56;;;;;;;7.63;2.10;;;8.60;99.90;;;;;;10530968;28;20064;-46
2021/04/05 03:43:29;;;;;;;9.07;2.30;;;8.60;99.90;;;;;;10527846;28;20127;-46
2021/04/05 03:49:22;;;;;;;9.05;2.20;;;8.70;99.90;;;;;;10525559;28;20032;-46
2021/04/05 03:54:48;;;;;;;7.00;2.17;;;8.70;99.90;;;;;;10522771;28;22473;-46
2021/04/05 04:00:13;;;;;;;11.35;3.03;;;8.80;99.90;;;;;;10524428;28;20134;-46
2021/04/05 04:05:39;;;;;;;9.00;2.60;;;8.70;99.90;;;;;;10525859;28;20089;-46
2021/04/05 04:11:05;;;;;;;5.07;1.90;;;8.80;99.90;;;;;;10525310;28;20105;-46
2021/04/05 04:16:28;;;;;;;4.35;1.67;;;8.80;99.90;;;;;;10525553;28;20042;-46
2021/04/05 04:21:50;;;;;;;4.47;1.60;;;8.80;99.90;;;;;;10522762;28;20100;-46
2021/04/05 04:27:15;;;;;;;6.35;2.33;;;8.80;99.90;;;;;;10523657;28;20421;-46
2021/04/05 04:32:36;;;;;;;8.40;2.17;;;8.80;99.90;;;;;;10520903;28;20091;-46
2021/04/05 04:37:58;;;;;;;6.95;2.38;;;8.70;99.90;;;;;;10526065;28;20410;-46
2021/04/05 04:43:19;;;;;;;8.55;1.63;;;8.60;99.90;;;;;;10520764;28;20155;-46
2021/04/05 04:48:40;;;;;;;10.90;3.47;;;8.70;99.90;;;;;;10524026;28;20472;-46
2021/04/05 04:54:03;;;;;;;5.82;1.92;;;8.60;99.90;;;;;;10521688;28;20044;-46
2021/04/05 04:59:26;;;;;;;16.40;2.17;;;8.70;99.90;;;;;;10525680;28;20092;-46
2021/04/05 05:04:49;;;;;;;1.20;0.50;;;8.80;99.90;;;;;;10520183;28;20518;-46
2021/04/05 05:10:11;;;;;;;1.75;0.20;;;8.70;99.90;;;;;;10520452;28;20155;-46
2021/04/05 05:15:35;;;;;;;3.58;0.22;;;7.70;99.90;;;;;;10518513;28;20036;-46
2021/04/05 05:20:56;;;;;;;3.15;0.40;;;7.00;99.90;;;;;;10521158;28;20055;-46
2021/04/05 05:26:19;;;;;;;1.75;1.25;;;6.50;99.90;;;;;;10523752;28;20040;-46
2021/04/05 05:31:41;;;;;;;1.75;1.40;;;6.30;99.90;;;;;;10513125;28;20090;-46
2021/04/05 05:37:03;;;;;;;9.00;0.50;;;6.20;99.90;;;;;;10505766;28;20044;-46
2021/04/05 05:42:36;;;;;;;2.10;0.20;;;6.10;99.90;;;;;;10519296;28;20036;-46
2021/04/05 05:48:04;;;;;;;8.68;0.68;;;6.10;99.90;;;;;;10518190;28;20039;-46
2021/04/05 05:53:46;;;;;;;2.55;0.52;;;6.10;99.90;;;;;;10523396;28;20058;-46
2021/04/05 05:59:31;;;;;;;0.20;0.10;;;6.10;99.90;;;;;;10484889;28;20055;-46
2021/04/05 06:05:19;;;;;;;1.67;0.45;;;6.00;99.90;;;;;;10487874;28;20065;-46
2021/04/05 06:11:28;;;;;;;1.08;0.88;;;6.00;99.90;;;;;;10485257;28;20497;-46
2021/04/05 06:17:13;;;;;;;8.80;0.30;;;6.00;99.90;;;;;;10484806;28;20151;-46
2021/04/05 06:22:59;;;;;;;0.55;0.20;;;5.90;99.90;;;;;;10484663;28;20041;-47
2021/04/05 06:28:38;;;;;;;1.83;0.47;;;5.80;99.90;;;;;;10482214;28;20510;-46
2021/04/05 06:34:10;;;;;;;7.85;0.82;;;5.80;99.90;;;;;;10481243;28;20112;-46
2021/04/05 06:39:35;;;;;;;0.00;0.00;;;5.70;99.90;;;;;;10468967;28;20174;-46
2021/04/05 06:45:27;;;;;;;0.32;0.00;;;5.30;99.90;;;;;;10484860;28;20040;-46
2021/04/05 06:51:00;;;;;;;9.98;0.90;;;5.00;99.90;;;;;;10482795;28;20033;-46
2021/04/05 06:56:31;;;;;;;4.20;1.70;;;4.80;99.90;;;;;;10506023;28;20044;-46
2021/04/05 07:02:15;;;;;;;4.88;0.30;;;4.80;99.90;;;;;;10525904;28;20043;-46
2021/04/05 07:08:05;;;;;;;4.05;1.33;;;4.80;99.90;;;;;;10520614;28;20080;-46
2021/04/05 07:14:01;;;;;;;2.50;1.33;;;4.80;99.90;;;;;;10523667;28;20043;-46
2021/04/05 07:19:28;;;;;;;1.15;0.30;;;4.80;99.90;;;;;;10523705;28;20059;-46
2021/04/05 07:24:54;;;;;;;1.55;0.30;;;4.80;99.90;;;;;;10528786;27;20043;-46
2021/04/05 07:30:24;;;;;;;0.57;0.25;;;4.70;99.90;;;;;;10522433;28;20346;-46
2021/04/05 07:36:04;;;;;;;5.55;0.47;;;4.60;99.90;;;;;;10521034;28;20104;-46
2021/04/05 07:41:44;;;;;;;5.05;0.60;;;4.50;99.90;;;;;;10521904;27;20048;-46
2021/04/05 07:47:26;;;;;;;3.03;0.65;;;4.50;99.90;;;;;;10520180;28;20524;-46
2021/04/05 07:52:56;;;;;;;1.55;0.68;;;4.50;99.90;;;;;;10526966;28;20115;-46
2021/04/05 07:58:30;;;;;;;2.70;1.20;;;4.40;99.90;;;;;;10525092;28;20097;-46
2021/04/05 08:04:06;;;;;;;0.80;0.55;;;4.60;99.90;;;;;;10521608;28;20036;-46
2021/04/05 08:09:37;;;;;;;5.72;0.40;;;4.80;99.90;;;;;;10524865;28;20032;-46
2021/04/05 08:15:39;;;;;;;0.88;0.40;;;4.90;99.90;;;;;;10526325;28;20055;-46
2021/04/05 08:21:13;;;;;;;3.85;0.17;;;5.00;99.90;;;;;;10485137;28;20048;-46
2021/04/05 08:26:34;;;;;;;0.63;0.10;;;5.10;99.90;;;;;;10517819;28;20040;-46
2021/04/05 08:32:20;;;;;;;2.08;0.68;;;5.20;99.90;;;;;;10514847;28;25082;-46
2021/04/05 08:38:05;;;;;;;0.10;0.08;;;5.10;99.90;;;;;;10514074;28;20114;-46
2021/04/05 08:44:03;;;;;;;1.27;0.30;;;5.20;99.90;;;;;;10517274;28;20048;-46
2021/04/05 08:49:25;;;;;;;0.00;0.00;;;4.90;99.90;;;;;;10511707;27;20221;-46
2021/04/05 08:54:48;;;;;;;0.00;0.00;;;5.00;99.90;;;;;;10507899;28;20543;-46
2021/04/05 09:00:14;;;;;;;0.22;0.00;;;4.60;99.90;;;;;;10480150;28;20056;-46
2021/04/05 09:05:42;;;;;;;0.40;0.10;;;4.20;99.90;;;;;;10480306;28;20341;-46
2021/04/05 09:11:05;;;;;;;4.28;0.43;;;4.20;99.90;;;;;;10479920;28;20668;-46
2021/04/05 09:16:50;;;;;;;3.60;0.20;;;4.30;99.90;;;;;;10479603;28;20044;-46
2021/04/05 09:22:45;;;;;;;1.55;0.10;;;4.70;99.90;;;;;;10481636;28;20040;-46
2021/04/05 09:28:33;;;;;;;1.05;0.10;;;4.90;99.90;;;;;;10481604;28;20623;-46
2021/04/05 09:34:19;;;;;;;0.32;0.20;;;5.20;99.90;;;;;;10477102;28;20039;-46
2021/04/05 09:40:10;;;;;;;2.40;0.35;;;5.60;99.90;;;;;;10481863;28;20040;-46
2021/04/05 09:45:57;;;;;;;0.10;0.00;;;5.50;99.90;;;;;;10476089;28;20044;-46
2021/04/05 09:51:33;;;;;;;3.72;0.40;;;5.60;99.90;;;;;;10477278;28;20040;-46
2021/04/05 09:56:59;;;;;;;2.85;0.30;;;5.70;99.90;;;;;;10474041;28;20150;-46
2021/04/05 10:02:35;;;;;;;1.27;0.30;;;5.60;99.90;;;;;;10475961;28;20032;-46
2021/04/05 10:07:57;;;;;;;0.35;0.10;;;5.00;99.90;;;;;;10461469;28;20044;-46
2021/04/05 10:13:22;;;;;;;1.38;0.70;;;4.70;99.90;;;;;;10479607;28;20040;-46
2021/04/05 10:18:55;;;;;;;1.27;0.30;;;4.90;99.90;;;;;;10474335;28;20476;-47
2021/04/05 10:24:21;;;;;;;3.78;0.30;;;5.70;99.90;;;;;;10456263;28;20041;-46
2021/04/05 10:29:44;;;;;;;2.42;0.40;;;6.60;99.90;;;;;;10471573;28;20060;-46
2021/04/05 10:35:07;;;;;;;0.10;0.03;;;6.80;99.90;;;;;;10476522;28;20044;-46
2021/04/05 10:40:28;;;;;;;0.98;0.10;;;6.80;99.90;;;;;;10480581;28;20046;-46
2021/04/05 10:46:19;;;;;;;1.67;0.40;;;7.40;96.60;;;;;;10480141;28;20610;-46
2021/04/05 10:52:00;;;;;;;2.53;0.40;;;7.20;99.10;;;;;;10481778;28;20057;-46
2021/04/05 10:57:31;;;;;;;1.35;0.88;;;7.50;97.20;;;;;;10513588;28;20036;-46
2021/04/05 11:03:03;;;;;;;2.30;0.28;;;7.80;94.80;;;;;;10525527;28;20138;-46
2021/04/05 11:08:28;;;;;;;1.48;0.10;;;8.40;91.10;;;;;;10529294;28;20044;-46
2021/04/05 11:13:53;;;;;;;5.15;0.60;;;8.80;88.40;;;;;;10529767;28;20064;-46
2021/04/05 11:19:22;;;;;;;1.50;0.43;;;9.10;83.00;;;;;;10525392;28;20036;-46
2021/04/05 11:24:45;;;;;;;1.50;0.63;;;8.60;93.50;;;;;;10526526;28;20097;-46
2021/04/05 11:30:07;;;;;;;0.85;0.08;;;7.60;99.90;;;;;;10526586;28;20055;-46
2021/04/05 11:35:33;;;;;;;2.33;0.17;;;5.80;99.90;;;;;;10524693;28;20051;-46
2021/04/05 11:41:04;;;;;;;0.35;0.10;;;4.60;99.90;;;;;;10521510;28;20089;-46
2021/04/05 11:46:31;;;;;;;1.73;0.30;;;5.40;99.90;;;;;;10517861;28;20070;-46
2021/04/05 11:52:09;;;;;;;1.00;0.20;;;7.40;99.90;;;;;;10524606;28;20036;-46
2021/04/05 11:57:33;;;;;;;0.73;0.05;;;7.50;99.90;;;;;;10520328;28;20040;-46
2021/04/05 12:03:22;;;;;;;0.03;0.00;;;6.40;99.90;;;;;;10514679;28;20040;-46
2021/04/05 12:08:52;;;;;;;1.00;0.38;;;5.20;99.90;;;;;;10515960;27;20138;-46
2021/04/05 12:14:20;;;;;;;0.85;0.30;;;5.50;99.90;;;;;;10519880;28;20055;-46
2021/04/05 12:19:46;;;;;;;0.40;0.20;;;7.70;99.90;;;;;;10518911;28;20118;-46
2021/04/05 12:25:08;;;;;;;0.50;0.08;;;9.20;99.90;;;;;;10524162;28;20035;-46
2021/04/05 12:30:30;;;;;;;0.57;0.13;;;9.60;93.90;;;;;;10521953;27;20171;-46
2021/04/05 12:35:56;;;;;;;1.77;0.28;;;10.10;92.50;;;;;;10517815;28;20047;-46
2021/04/05 12:41:18;;;;;;;0.55;0.20;;;10.80;89.40;;;;;;10518679;28;20486;-46
2021/04/05 12:46:47;;;;;;;0.55;0.00;;;9.50;91.90;;;;;;10514904;28;20335;-46
2021/04/05 12:52:14;;;;;;;2.25;0.17;;;9.00;91.90;;;;;;10518565;28;20180;-46
2021/04/05 12:57:36;;;;;;;0.35;0.00;;;7.70;97.10;;;;;;10519786;28;20044;-46
2021/04/05 13:03:06;;;;;;;3.28;0.30;;;6.60;99.90;;;;;;10515823;28;20419;-46
2021/04/05 13:08:53;;;;;;;0.40;0.10;;;7.70;99.70;;;;;;10515699;28;20427;-47
2021/04/05 13:14:28;;;;;;;3.38;0.30;;;8.40;97.10;;;;;;10515017;28;20522;-46
2021/04/05 13:19:51;;;;;;;0.93;0.30;;;9.20;91.00;;;;;;10521987;28;20040;-46
2021/04/05 13:25:23;;;;;;;0.30;0.10;;;8.30;94.90;;;;;;10522993;28;20078;-46
2021/04/05 13:30:48;;;;;;;0.10;0.10;;;6.10;99.90;;;;;;10496982;28;20066;-46
2021/04/05 13:36:14;;;;;;;0.13;0.00;;;5.40;99.90;;;;;;10493152;28;20048;-46
2021/04/05 13:41:39;;;;;;;1.75;0.00;;;7.70;99.90;;;;;;10494882;28;20044;-46
2021/04/05 13:47:02;;;;;;;0.65;0.00;;;9.90;99.90;;;;;;10496315;28;20036;-46
2021/04/05 13:52:26;;;;;;;0.17;0.00;;;10.50;99.20;;;;;;10496618;28;20204;-46
2021/04/05 13:57:53;;;;;;;0.68;0.05;;;11.10;98.50;;;;;;10494357;28;20465;-46
2021/04/05 14:03:23;;;;;;;0.43;0.05;;;11.10;97.20;;;;;;10501023;28;20035;-46
2021/04/05 14:08:45;;;;;;;0.30;0.10;;;10.60;99.90;;;;;;10496929;28;20035;-47
2021/04/05 14:14:06;;;;;;;0.25;0.10;;;10.70;99.90;;;;;;10497217;28;20046;-46
2021/04/05 14:19:50;;;;;;;0.45;0.13;;;10.70;99.90;;;;;;10503809;28;20043;-46
2021/04/05 14:25:26;;;;;;;0.70;0.45;;;10.10;99.90;;;;;;10503593;27;20059;-46
2021/04/05 14:30:55;;;;;;;0.63;0.20;;;8.70;99.40;;;;;;10506080;27;20564;-46
2021/04/05 14:36:22;;;;;;;0.43;0.20;;;7.70;99.90;;;;;;10501753;28;20035;-46
2021/04/05 14:42:02;;;;;;;2.60;0.47;;;8.00;99.90;;;;;;10500825;27;20032;-46
2021/04/05 14:47:25;;;;;;;0.57;0.20;;;7.70;99.90;;;;;;10502862;28;20066;-46
2021/04/05 14:52:54;;;;;;;2.15;0.30;;;6.90;99.90;;;;;;10500651;28;20039;-45
2021/04/05 14:58:22;;;;;;;1.42;0.43;;;6.20;99.90;;;;;;10502117;28;20848;-46
2021/04/05 15:03:55;;;;;;;0.20;0.10;;;5.80;99.90;;;;;;10502509;27;20020;-45
2021/04/05 15:09:25;;;;;;;2.40;0.52;;;6.10;99.90;;;;;;10499472;28;20318;-46
2021/04/05 15:14:47;;;;;;;7.72;0.40;;;5.90;99.90;;;;;;10500842;28;20039;-45
2021/04/05 15:20:17;;;;;;;0.40;0.10;;;5.80;99.90;;;;;;10500869;27;20127;-46
2021/04/05 15:25:41;;;;;;;0.38;0.20;;;5.60;99.90;;;;;;10499309;28;20043;-46
2021/04/05 15:31:04;;;;;;;1.15;0.30;;;5.50;99.90;;;;;;10498233;28;20449;-46
2021/04/05 15:36:28;;;;;;;0.25;0.10;;;5.70;99.90;;;;;;10497236;27;20047;-45
2021/04/05 15:42:00;;;;;;;0.88;0.20;;;5.90;99.90;;;;;;10497210;28;20158;-46
2021/04/05 15:47:44;;;;;;;0.90;0.17;;;5.70;99.90;;;;;;10497860;27;20418;-46
2021/04/05 15:53:18;;;;;;;1.98;0.15;;;5.60;99.90;;;;;;10502616;27;20040;-45
2021/04/05 15:58:55;;;;;;;0.22;0.10;;;4.80;99.90;;;;;;10501141;28;20051;-46
2021/04/05 16:04:36;;;;;;;0.00;0.00;;;3.90;99.90;;;;;;10496946;28;20047;-45
2021/04/05 16:10:08;;;;;;;0.05;0.00;;;3.60;99.90;;;;;;10502057;28;20421;-45
2021/04/05 16:15:33;;;;;;;0.98;0.28;;;4.00;99.90;;;;;;10501438;28;20040;-45
2021/04/05 16:20:59;;;;;;;1.83;0.77;;;4.30;99.90;;;;;;10500149;28;20063;-45
2021/04/05 16:26:23;;;;;;;0.68;0.22;;;4.30;99.90;;;;;;10498684;28;20039;-45
2021/04/05 16:31:46;;;;;;;2.42;0.22;;;4.20;99.90;;;;;;10496785;28;20051;-46
2021/04/05 16:37:16;;;;;;;0.68;0.15;;;3.90;99.90;;;;;;10496755;28;20074;-45
2021/04/05 16:42:42;;;;;;;0.82;0.20;;;4.10;99.90;;;;;;10484382;28;20075;-45
2021/04/05 16:48:06;;;;;;;0.40;0.20;;;4.30;99.90;;;;;;10496540;28;20036;-46
2021/04/05 16:53:29;;;;;;;3.65;1.13;;;4.50;99.90;;;;;;10495538;28;20042;-45
2021/04/05 16:58:54;;;;;;;6.63;0.20;;;4.80;99.90;;;;;;10496250;28;20194;-45
2021/04/05 17:04:32;;;;;;;0.30;0.13;;;5.00;99.90;;;;;;10496046;28;20032;-45
2021/04/05 17:09:55;;;;;;;0.63;0.20;;;4.90;99.90;;;;;;10500715;28;20295;-45
2021/04/05 17:15:24;;;;;;;0.68;0.52;;;4.70;99.90;;;;;;10497538;28;20040;-45
2021/04/05 17:20:57;;;;;;;0.70;0.45;;;4.60;99.90;;;;;;10496780;28;20581;-45
2021/04/05 17:26:24;;;;;;;0.10;0.10;;;4.40;99.90;;;;;;10502404;28;20036;-45
2021/04/05 17:32:06;;;;;;;1.17;0.15;;;4.40;99.90;;;;;;10493646;28;20617;-45
2021/04/05 17:37:39;;;;;;;3.08;0.63;;;4.40;99.90;;;;;;10499512;28;20123;-45
2021/04/05 17:43:04;;;;;;;2.95;1.10;;;4.50;99.90;;;;;;10484192;28;20086;-45
2021/04/05 17:48:46;;;;;;;10.02;0.65;;;4.70;99.90;;;;;;10499625;28;20040;-45
2021/04/05 17:54:15;;;;;;;5.82;0.65;;;4.80;99.90;;;;;;10514305;28;20396;-45
2021/04/05 17:59:41;;;;;;;;;;;4.80;99.90;;;;;;10509799;28;20058;-45
2021/04/05 18:05:07;;;;;;;8.05;0.30;;;4.80;99.90;;;;;;10519146;28;20379;-45
2021/04/05 18:10:50;;;;;;;2.58;0.70;;;4.70;99.90;;;;;;10521274;28;20395;-45
2021/04/05 18:16:48;;;;;;;0.30;0.10;;;4.80;99.90;;;;;;10516487;28;20079;-45
2021/04/05 18:22:18;;;;;;;2.78;0.40;;;4.80;99.90;;;;;;10514001;28;20166;-45
2021/04/05 18:27:56;;;;;;;1.48;0.50;;;4.70;99.90;;;;;;10510353;27;20046;-46
2021/04/05 18:33:51;;;;;;;1.55;0.40;;;4.80;99.90;;;;;;10511436;28;20059;-45
2021/04/05 18:39:14;;;;;;;2.08;0.25;;;4.80;99.90;;;;;;10511821;28;20036;-45
2021/04/05 18:44:43;;;;;;;1.90;0.60;;;4.80;99.90;;;;;;10512508;28;20096;-45
2021/04/05 18:50:38;;;;;;;3.07;0.30;;;4.80;99.90;;;;;;10511992;28;20059;-45
2021/04/05 18:56:04;;;;;;;4.93;0.90;;;3.90;99.90;;;;;;10512010;28;20298;-45
2021/04/05 19:01:27;;;;;;;3.22;0.50;;;3.40;99.90;;;;;;10514889;28;20050;-45
2021/04/05 19:07:05;;;;;;;3.55;0.45;;;3.00;99.90;;;;;;10516830;28;20564;-45
2021/04/05 19:12:55;;;;;;;2.60;0.90;;;2.90;99.90;;;;;;10514246;28;20161;-46
2021/04/05 19:18:37;;;;;;;1.30;0.32;;;2.90;99.90;;;;;;10507506;28;20055;-46
2021/04/05 19:24:15;;;;;;;6.13;0.63;;;3.10;99.90;;;;;;10512733;28;20680;-46
2021/04/05 19:29:53;;;;;;;2.90;0.73;;;3.20;99.90;;;;;;10503813;28;20511;-46
2021/04/05 19:35:27;;;;;;;4.10;1.17;;;3.20;99.90;;;;;;10486386;28;20044;-46
2021/04/05 19:41:13;;;;;;;1.92;0.75;;;3.50;99.90;;;;;;10502734;28;20126;-46
2021/04/05 19:46:54;;;;;;;1.45;0.28;;;3.60;99.90;;;;;;10502097;28;20089;-46
2021/04/05 19:52:34;;;;;;;1.58;0.60;;;3.60;99.90;;;;;;10500022;28;20036;-46
2021/04/05 19:58:31;;;;;;;3.65;0.65;;;3.70;99.90;;;;;;10506706;28;20040;-46
2021/04/05 20:04:08;;;;;;;2.05;0.40;;;3.80;99.90;;;;;;10500721;28;20036;-46
2021/04/05 20:09:46;;;;;;;1.05;0.52;;;3.90;99.90;;;;;;10502658;28;20062;-46
2021/04/05 20:15:18;;;;;;;0.70;0.35;;;3.90;99.90;;;;;;10501057;28;20047;-46
2021/04/05 20:20:47;;;;;;;3.03;1.80;;;4.00;99.90;;;;;;10503887;28;20391;-46
2021/04/05 20:26:14;;;;;;;6.40;0.73;;;4.10;99.90;;;;;;10506225;28;20589;-46
2021/04/05 20:31:52;;;;;;;4.97;0.40;;;4.10;99.90;;;;;;10503823;28;20156;-46
2021/04/05 20:37:43;;;;;;;0.22;0.10;;;4.20;99.90;;;;;;10507168;28;20787;-46
2021/04/05 20:43:25;;;;;;;2.50;1.05;;;4.10;99.90;;;;;;10492099;28;20699;-46
2021/04/05 20:48:53;;;;;;;3.83;1.45;;;4.10;99.90;;;;;;10516604;28;20094;-46
2021/04/05 20:54:27;;;;;;;0.70;0.25;;;4.00;99.90;;;;;;10516848;28;20646;-46
2021/04/05 21:00:16;;;;;;;1.58;0.40;;;4.10;99.90;;;;;;10521698;28;20070;-46
2021/04/05 21:05:40;;;;;;;1.25;0.20;;;4.10;99.90;;;;;;10515843;28;20666;-46
2021/04/05 21:11:11;;;;;;;0.52;0.20;;;4.00;99.90;;;;;;10513896;28;20546;-46
2021/04/05 21:16:33;;;;;;;10.80;1.27;;;4.00;99.90;;;;;;10514646;28;20051;-46
2021/04/05 21:21:57;;;;;;;1.67;0.50;;;4.20;99.90;;;;;;10513213;28;20101;-47
2021/04/05 21:27:26;;;;;;;10.10;0.98;;;4.20;99.90;;;;;;10514424;28;20047;-46
2021/04/05 21:32:53;;;;;;;;;;;4.00;99.90;;;;;;10512122;28;20494;-46
2021/04/05 21:38:36;;;;;;;3.78;0.80;;;3.90;99.90;;;;;;10518179;28;19954;-46
2021/04/05 21:43:58;;;;;;;10.38;0.52;;;3.90;99.90;;;;;;10513355;28;20075;-46
2021/04/05 21:49:33;;;;;;;5.00;0.30;;;3.80;99.90;;;;;;10513864;28;20058;-46
2021/04/05 21:54:57;;;;;;;0.45;0.25;;;3.70;99.90;;;;;;10514826;28;20484;-47
2021/04/05 22:00:21;;;;;;;3.65;0.43;;;3.70;99.90;;;;;;10474774;28;20040;-46
2021/04/05 22:05:52;;;;;;;0.30;0.03;;;3.80;99.90;;;;;;10453918;28;20112;-46
2021/04/05 22:11:17;;;;;;;2.00;0.50;;;3.80;99.90;;;;;;10472214;28;20134;-46
2021/04/05 22:16:39;;;;;;;0.63;0.20;;;3.70;99.90;;;;;;10447992;28;20076;-46
2021/04/05 22:22:10;;;;;;;1.00;0.80;;;3.70;99.90;;;;;;10470563;28;20086;-47
2021/04/05 22:27:41;;;;;;;1.67;0.28;;;3.60;99.90;;;;;;10471554;28;20040;-46
2021/04/05 22:33:04;;;;;;;4.35;0.50;;;3.60;99.90;;;;;;10469572;28;20037;-46
2021/04/05 22:38:25;;;;;;;9.50;0.68;;;3.80;99.90;;;;;;10480543;28;20040;-46
2021/04/05 22:43:47;;;;;;;2.42;0.17;;;3.80;99.90;;;;;;10476304;28;20037;-46
2021/04/05 22:49:09;;;;;;;1.15;0.40;;;3.80;99.90;;;;;;10466482;28;20032;-46
2021/04/05 22:54:37;;;;;;;1.08;0.30;;;3.60;99.90;;;;;;10476267;28;20037;-47
2021/04/05 23:00:01;;;;;;;0.65;0.20;;;3.60;99.90;;;;;;10477402;28;20091;-47
2021/04/05 23:05:22;;;;;;;0.65;0.20;;;3.70;99.90;;;;;;10476276;28;20054;-46
2021/04/05 23:10:49;;;;;;;1.70;0.40;;;3.60;99.90;;;;;;10478359;28;20047;-46
2021/04/05 23:16:21;;;;;;;0.75;0.35;;;3.60;99.90;;;;;;10483997;28;20725;-46
2021/04/05 23:21:48;;;;;;;1.88;0.40;;;3.40;99.90;;;;;;10477899;28;20508;-46
2021/04/05 23:27:16;;;;;;;0.57;0.28;;;3.40;99.90;;;;;;10473484;28;20063;-46
2021/04/05 23:33:06;;;;;;;5.07;0.75;;;3.20;99.90;;;;;;10477072;28;20052;-46
2021/04/05 23:38:33;;;;;;;3.55;0.43;;;3.20;99.90;;;;;;10475644;28;20095;-46
2021/04/05 23:44:04;;;;;;;1.15;0.52;;;3.20;99.90;;;;;;10478024;28;20261;-46
2021/04/05 23:49:30;;;;;;;3.05;0.50;;;3.30;99.90;;;;;;10481522;28;20043;-46
2021/04/05 23:54:53;;;;;;;0.95;0.40;;;3.30;99.90;;;;;;10476113;28;20144;-47
